sensor_id;sensor_type;location;lat;lon;timestamp;P1;durP1;ratioP1;P2;durP2;ratioP2
4517;SDS011;2271;49.464;11.070;2024-01-30T00:02:21;12.53;;;5.90;;
4517;SDS011;2271;49.464;11.070;2024-01-30T00:04:47;7.90;;;6.23;;
4517;SDS011;2271;49.464;11.070;2024-01-30T00:07:12;15.80;;;6.50;;
4517;SDS011;2271;49.464;11.070;2024-01-30T00:09:38;9.60;;;5.80;;
4517;SDS011;2271;49.464;11.070;2024-01-30T00:12:06;9.03;;;5.47;;
4517;SDS011;2271;49.464;11.070;2024-01-30T00:14:32;10.87;;;5.07;;
4517;SDS011;2271;49.464;11.070;2024-01-30T00:16:58;12.93;;;6.40;;
4517;SDS011;2271;49.464;11.070;2024-01-30T00:19:23;11.20;;;5.37;;
4517;SDS011;2271;49.464;11.070;2024-01-30T00:21:49;8.63;;;5.50;;
4517;SDS011;2271;49.464;11.070;2024-01-30T00:24:15;9.80;;;6.00;;
4517;SDS011;2271;49.464;11.070;2024-01-30T00:26:40;10.30;;;5.63;;
4517;SDS011;2271;49.464;11.070;2024-01-30T00:29:06;9.70;;;5.33;;
4517;SDS011;2271;49.464;11.070;2024-01-30T00:31:31;12.80;;;5.87;;
4517;SDS011;2271;49.464;11.070;2024-01-30T00:33:57;9.17;;;5.53;;
4517;SDS011;2271;49.464;11.070;2024-01-30T00:36:23;8.83;;;5.53;;
4517;SDS011;2271;49.464;11.070;2024-01-30T00:38:48;12.10;;;5.37;;
4517;SDS011;2271;49.464;11.070;2024-01-30T00:41:14;8.50;;;5.13;;
4517;SDS011;2271;49.464;11.070;2024-01-30T00:43:42;12.80;;;5.63;;
4517;SDS011;2271;49.464;11.070;2024-01-30T00:46:08;7.17;;;4.37;;
4517;SDS011;2271;49.464;11.070;2024-01-30T00:48:33;7.87;;;4.33;;
4517;SDS011;2271;49.464;11.070;2024-01-30T00:50:59;8.20;;;4.60;;
4517;SDS011;2271;49.464;11.070;2024-01-30T00:53:24;5.90;;;4.77;;
4517;SDS011;2271;49.464;11.070;2024-01-30T00:55:50;7.87;;;5.03;;
4517;SDS011;2271;49.464;11.070;2024-01-30T00:58:15;8.80;;;4.70;;
4517;SDS011;2271;49.464;11.070;2024-01-30T01:00:41;9.80;;;4.90;;
4517;SDS011;2271;49.464;11.070;2024-01-30T01:03:07;8.83;;;4.60;;
4517;SDS011;2271;49.464;11.070;2024-01-30T01:05:32;7.23;;;4.43;;
4517;SDS011;2271;49.464;11.070;2024-01-30T01:07:58;5.93;;;4.03;;
4517;SDS011;2271;49.464;11.070;2024-01-30T01:10:23;5.27;;;4.30;;
4517;SDS011;2271;49.464;11.070;2024-01-30T01:12:49;6.70;;;4.60;;
4517;SDS011;2271;49.464;11.070;2024-01-30T01:15:15;6.37;;;4.60;;
4517;SDS011;2271;49.464;11.070;2024-01-30T01:17:40;6.47;;;4.10;;
4517;SDS011;2271;49.464;11.070;2024-01-30T01:20:06;6.93;;;4.87;;
4517;SDS011;2271;49.464;11.070;2024-01-30T01:22:32;7.70;;;4.10;;
4517;SDS011;2271;49.464;11.070;2024-01-30T01:24:59;9.23;;;4.17;;
4517;SDS011;2271;49.464;11.070;2024-01-30T01:27:27;7.43;;;4.73;;
4517;SDS011;2271;49.464;11.070;2024-01-30T01:29:53;8.60;;;4.30;;
4517;SDS011;2271;49.464;11.070;2024-01-30T01:32:19;6.27;;;4.27;;
4517;SDS011;2271;49.464;11.070;2024-01-30T01:34:44;7.43;;;4.00;;
4517;SDS011;2271;49.464;11.070;2024-01-30T01:37:10;5.83;;;4.13;;
4517;SDS011;2271;49.464;11.070;2024-01-30T01:39:36;9.00;;;3.80;;
4517;SDS011;2271;49.464;11.070;2024-01-30T01:42:01;9.47;;;4.57;;
4517;SDS011;2271;49.464;11.070;2024-01-30T01:44:27;5.27;;;3.83;;
4517;SDS011;2271;49.464;11.070;2024-01-30T01:46:54;10.80;;;5.23;;
4517;SDS011;2271;49.464;11.070;2024-01-30T01:49:20;7.90;;;3.87;;
4517;SDS011;2271;49.464;11.070;2024-01-30T01:51:47;10.10;;;4.27;;
4517;SDS011;2271;49.464;11.070;2024-01-30T01:54:14;6.67;;;4.10;;
4517;SDS011;2271;49.464;11.070;2024-01-30T01:56:40;8.23;;;4.07;;
4517;SDS011;2271;49.464;11.070;2024-01-30T01:59:07;6.63;;;4.27;;
4517;SDS011;2271;49.464;11.070;2024-01-30T02:01:34;6.30;;;3.67;;
4517;SDS011;2271;49.464;11.070;2024-01-30T02:04:01;8.10;;;3.70;;
4517;SDS011;2271;49.464;11.070;2024-01-30T02:06:27;4.73;;;3.60;;
4517;SDS011;2271;49.464;11.070;2024-01-30T02:08:53;5.03;;;4.07;;
4517;SDS011;2271;49.464;11.070;2024-01-30T02:11:20;5.63;;;3.30;;
4517;SDS011;2271;49.464;11.070;2024-01-30T02:13:47;4.60;;;3.57;;
4517;SDS011;2271;49.464;11.070;2024-01-30T02:16:12;7.27;;;3.93;;
4517;SDS011;2271;49.464;11.070;2024-01-30T02:18:38;5.73;;;3.53;;
4517;SDS011;2271;49.464;11.070;2024-01-30T02:21:08;8.27;;;3.77;;
4517;SDS011;2271;49.464;11.070;2024-01-30T02:23:34;4.97;;;3.67;;
4517;SDS011;2271;49.464;11.070;2024-01-30T02:25:59;9.23;;;3.50;;
4517;SDS011;2271;49.464;11.070;2024-01-30T02:28:25;4.73;;;3.23;;
4517;SDS011;2271;49.464;11.070;2024-01-30T02:30:51;7.03;;;4.20;;
4517;SDS011;2271;49.464;11.070;2024-01-30T02:33:17;7.00;;;4.20;;
4517;SDS011;2271;49.464;11.070;2024-01-30T02:35:42;6.83;;;3.83;;
4517;SDS011;2271;49.464;11.070;2024-01-30T02:38:08;6.97;;;3.97;;
4517;SDS011;2271;49.464;11.070;2024-01-30T02:40:33;6.53;;;4.30;;
4517;SDS011;2271;49.464;11.070;2024-01-30T02:42:59;6.53;;;3.70;;
4517;SDS011;2271;49.464;11.070;2024-01-30T02:45:26;5.13;;;3.57;;
4517;SDS011;2271;49.464;11.070;2024-01-30T02:47:52;5.43;;;3.67;;
4517;SDS011;2271;49.464;11.070;2024-01-30T02:50:18;6.07;;;3.90;;
4517;SDS011;2271;49.464;11.070;2024-01-30T02:52:43;5.07;;;3.73;;
4517;SDS011;2271;49.464;11.070;2024-01-30T02:55:09;5.90;;;4.07;;
4517;SDS011;2271;49.464;11.070;2024-01-30T02:57:35;5.30;;;3.53;;
4517;SDS011;2271;49.464;11.070;2024-01-30T03:00:01;5.97;;;4.03;;
4517;SDS011;2271;49.464;11.070;2024-01-30T03:02:28;7.63;;;4.67;;
4517;SDS011;2271;49.464;11.070;2024-01-30T03:04:54;7.43;;;3.50;;
4517;SDS011;2271;49.464;11.070;2024-01-30T03:07:20;5.37;;;3.53;;
4517;SDS011;2271;49.464;11.070;2024-01-30T03:09:45;6.23;;;3.80;;
4517;SDS011;2271;49.464;11.070;2024-01-30T03:12:11;6.03;;;4.03;;
4517;SDS011;2271;49.464;11.070;2024-01-30T03:14:36;8.80;;;4.43;;
4517;SDS011;2271;49.464;11.070;2024-01-30T03:17:02;8.93;;;4.10;;
4517;SDS011;2271;49.464;11.070;2024-01-30T03:19:28;7.00;;;4.13;;
4517;SDS011;2271;49.464;11.070;2024-01-30T03:21:54;4.73;;;3.70;;
4517;SDS011;2271;49.464;11.070;2024-01-30T03:24:19;5.43;;;3.87;;
4517;SDS011;2271;49.464;11.070;2024-01-30T03:26:45;7.00;;;4.30;;
4517;SDS011;2271;49.464;11.070;2024-01-30T03:29:11;7.77;;;4.50;;
4517;SDS011;2271;49.464;11.070;2024-01-30T03:31:36;7.13;;;4.70;;
4517;SDS011;2271;49.464;11.070;2024-01-30T03:34:02;7.33;;;5.03;;
4517;SDS011;2271;49.464;11.070;2024-01-30T03:36:27;8.70;;;5.17;;
4517;SDS011;2271;49.464;11.070;2024-01-30T03:38:53;8.00;;;4.20;;
4517;SDS011;2271;49.464;11.070;2024-01-30T03:41:19;7.53;;;4.53;;
4517;SDS011;2271;49.464;11.070;2024-01-30T03:43:45;7.40;;;4.33;;
4517;SDS011;2271;49.464;11.070;2024-01-30T03:46:12;7.30;;;4.53;;
4517;SDS011;2271;49.464;11.070;2024-01-30T03:48:38;7.60;;;4.27;;
4517;SDS011;2271;49.464;11.070;2024-01-30T03:51:04;7.47;;;5.13;;
4517;SDS011;2271;49.464;11.070;2024-01-30T03:53:30;7.37;;;4.40;;
4517;SDS011;2271;49.464;11.070;2024-01-30T03:55:55;6.20;;;4.80;;
4517;SDS011;2271;49.464;11.070;2024-01-30T03:58:21;7.53;;;4.60;;
4517;SDS011;2271;49.464;11.070;2024-01-30T04:00:47;7.30;;;4.17;;
4517;SDS011;2271;49.464;11.070;2024-01-30T04:03:13;6.60;;;4.93;;
4517;SDS011;2271;49.464;11.070;2024-01-30T04:05:40;5.33;;;4.03;;
4517;SDS011;2271;49.464;11.070;2024-01-30T04:08:06;6.10;;;4.47;;
4517;SDS011;2271;49.464;11.070;2024-01-30T04:10:32;8.10;;;4.70;;
4517;SDS011;2271;49.464;11.070;2024-01-30T04:12:58;6.63;;;4.63;;
4517;SDS011;2271;49.464;11.070;2024-01-30T04:15:24;10.77;;;4.60;;
4517;SDS011;2271;49.464;11.070;2024-01-30T04:17:50;7.37;;;4.17;;
4517;SDS011;2271;49.464;11.070;2024-01-30T04:20:16;8.00;;;5.07;;
4517;SDS011;2271;49.464;11.070;2024-01-30T04:22:45;8.63;;;4.67;;
4517;SDS011;2271;49.464;11.070;2024-01-30T04:25:12;7.07;;;4.33;;
4517;SDS011;2271;49.464;11.070;2024-01-30T04:27:38;6.57;;;4.03;;
4517;SDS011;2271;49.464;11.070;2024-01-30T04:30:03;8.83;;;5.00;;
4517;SDS011;2271;49.464;11.070;2024-01-30T04:32:30;7.47;;;4.33;;
4517;SDS011;2271;49.464;11.070;2024-01-30T04:34:55;6.27;;;4.90;;
4517;SDS011;2271;49.464;11.070;2024-01-30T04:37:21;7.30;;;5.30;;
4517;SDS011;2271;49.464;11.070;2024-01-30T04:39:47;12.13;;;4.63;;
4517;SDS011;2271;49.464;11.070;2024-01-30T04:42:12;6.43;;;4.73;;
4517;SDS011;2271;49.464;11.070;2024-01-30T04:44:38;9.93;;;5.47;;
4517;SDS011;2271;49.464;11.070;2024-01-30T04:47:03;5.93;;;4.27;;
4517;SDS011;2271;49.464;11.070;2024-01-30T04:49:31;7.90;;;4.63;;
4517;SDS011;2271;49.464;11.070;2024-01-30T04:51:57;7.67;;;5.43;;
4517;SDS011;2271;49.464;11.070;2024-01-30T04:54:22;10.93;;;4.80;;
4517;SDS011;2271;49.464;11.070;2024-01-30T04:56:48;6.30;;;4.57;;
4517;SDS011;2271;49.464;11.070;2024-01-30T04:59:14;5.77;;;4.60;;
4517;SDS011;2271;49.464;11.070;2024-01-30T05:01:39;9.93;;;4.97;;
4517;SDS011;2271;49.464;11.070;2024-01-30T05:04:07;7.63;;;5.23;;
4517;SDS011;2271;49.464;11.070;2024-01-30T05:06:34;9.43;;;5.40;;
4517;SDS011;2271;49.464;11.070;2024-01-30T05:08:59;9.17;;;4.87;;
4517;SDS011;2271;49.464;11.070;2024-01-30T05:11:25;7.10;;;4.93;;
4517;SDS011;2271;49.464;11.070;2024-01-30T05:13:50;6.77;;;4.67;;
4517;SDS011;2271;49.464;11.070;2024-01-30T05:16:16;10.67;;;5.07;;
4517;SDS011;2271;49.464;11.070;2024-01-30T05:18:42;6.13;;;4.80;;
4517;SDS011;2271;49.464;11.070;2024-01-30T05:21:08;6.57;;;5.27;;
4517;SDS011;2271;49.464;11.070;2024-01-30T05:23:35;9.43;;;5.10;;
4517;SDS011;2271;49.464;11.070;2024-01-30T05:26:00;5.73;;;4.63;;
4517;SDS011;2271;49.464;11.070;2024-01-30T05:28:27;12.10;;;5.10;;
4517;SDS011;2271;49.464;11.070;2024-01-30T05:30:54;9.73;;;5.20;;
4517;SDS011;2271;49.464;11.070;2024-01-30T05:33:20;9.10;;;5.77;;
4517;SDS011;2271;49.464;11.070;2024-01-30T05:35:46;12.20;;;5.77;;
4517;SDS011;2271;49.464;11.070;2024-01-30T05:38:12;8.87;;;5.63;;
4517;SDS011;2271;49.464;11.070;2024-01-30T05:40:37;10.47;;;6.20;;
4517;SDS011;2271;49.464;11.070;2024-01-30T05:43:03;7.13;;;5.37;;
4517;SDS011;2271;49.464;11.070;2024-01-30T05:45:29;10.03;;;5.73;;
4517;SDS011;2271;49.464;11.070;2024-01-30T05:47:54;9.83;;;5.53;;
4517;SDS011;2271;49.464;11.070;2024-01-30T05:50:20;9.60;;;5.83;;
4517;SDS011;2271;49.464;11.070;2024-01-30T05:52:48;9.83;;;5.70;;
4517;SDS011;2271;49.464;11.070;2024-01-30T05:55:14;10.60;;;5.53;;
4517;SDS011;2271;49.464;11.070;2024-01-30T05:57:39;7.77;;;5.53;;
4517;SDS011;2271;49.464;11.070;2024-01-30T06:00:05;8.17;;;5.57;;
4517;SDS011;2271;49.464;11.070;2024-01-30T06:02:32;11.00;;;6.37;;
4517;SDS011;2271;49.464;11.070;2024-01-30T06:04:58;8.10;;;6.40;;
4517;SDS011;2271;49.464;11.070;2024-01-30T06:07:23;14.30;;;6.30;;
4517;SDS011;2271;49.464;11.070;2024-01-30T06:09:49;13.40;;;7.13;;
4517;SDS011;2271;49.464;11.070;2024-01-30T06:12:15;24.07;;;12.53;;
4517;SDS011;2271;49.464;11.070;2024-01-30T06:14:40;12.07;;;8.30;;
4517;SDS011;2271;49.464;11.070;2024-01-30T06:17:07;9.70;;;6.53;;
4517;SDS011;2271;49.464;11.070;2024-01-30T06:19:37;11.90;;;7.33;;
4517;SDS011;2271;49.464;11.070;2024-01-30T06:22:03;11.90;;;6.40;;
4517;SDS011;2271;49.464;11.070;2024-01-30T06:24:29;9.70;;;5.97;;
4517;SDS011;2271;49.464;11.070;2024-01-30T06:26:55;11.23;;;7.07;;
4517;SDS011;2271;49.464;11.070;2024-01-30T06:29:20;11.50;;;7.00;;
4517;SDS011;2271;49.464;11.070;2024-01-30T06:31:46;11.50;;;6.57;;
4517;SDS011;2271;49.464;11.070;2024-01-30T06:34:12;9.80;;;6.47;;
4517;SDS011;2271;49.464;11.070;2024-01-30T06:36:38;11.20;;;6.73;;
4517;SDS011;2271;49.464;11.070;2024-01-30T06:39:03;11.23;;;7.20;;
4517;SDS011;2271;49.464;11.070;2024-01-30T06:41:29;12.70;;;6.83;;
4517;SDS011;2271;49.464;11.070;2024-01-30T06:43:55;10.83;;;6.50;;
4517;SDS011;2271;49.464;11.070;2024-01-30T06:46:21;14.03;;;7.50;;
4517;SDS011;2271;49.464;11.070;2024-01-30T06:48:47;13.77;;;7.30;;
4517;SDS011;2271;49.464;11.070;2024-01-30T06:51:12;15.00;;;7.60;;
4517;SDS011;2271;49.464;11.070;2024-01-30T06:53:38;15.77;;;8.90;;
4517;SDS011;2271;49.464;11.070;2024-01-30T06:56:04;16.97;;;8.93;;
4517;SDS011;2271;49.464;11.070;2024-01-30T06:58:30;12.63;;;8.27;;
4517;SDS011;2271;49.464;11.070;2024-01-30T07:00:56;9.97;;;7.13;;
4517;SDS011;2271;49.464;11.070;2024-01-30T07:03:21;11.63;;;7.63;;
4517;SDS011;2271;49.464;11.070;2024-01-30T07:05:47;10.53;;;8.63;;
4517;SDS011;2271;49.464;11.070;2024-01-30T07:08:13;10.93;;;8.10;;
4517;SDS011;2271;49.464;11.070;2024-01-30T07:10:42;11.77;;;8.10;;
4517;SDS011;2271;49.464;11.070;2024-01-30T07:13:08;12.33;;;8.07;;
4517;SDS011;2271;49.464;11.070;2024-01-30T07:15:35;15.87;;;7.37;;
4517;SDS011;2271;49.464;11.070;2024-01-30T07:18:01;14.53;;;7.97;;
4517;SDS011;2271;49.464;11.070;2024-01-30T07:20:27;11.13;;;7.57;;
4517;SDS011;2271;49.464;11.070;2024-01-30T07:22:55;11.60;;;7.73;;
4517;SDS011;2271;49.464;11.070;2024-01-30T07:25:20;13.10;;;8.40;;
4517;SDS011;2271;49.464;11.070;2024-01-30T07:27:46;11.90;;;8.40;;
4517;SDS011;2271;49.464;11.070;2024-01-30T07:30:12;13.83;;;8.90;;
4517;SDS011;2271;49.464;11.070;2024-01-30T07:32:38;14.40;;;9.77;;
4517;SDS011;2271;49.464;11.070;2024-01-30T07:35:03;19.30;;;9.07;;
4517;SDS011;2271;49.464;11.070;2024-01-30T07:37:29;14.43;;;8.87;;
4517;SDS011;2271;49.464;11.070;2024-01-30T07:39:55;11.73;;;8.70;;
4517;SDS011;2271;49.464;11.070;2024-01-30T07:42:20;14.70;;;9.57;;
4517;SDS011;2271;49.464;11.070;2024-01-30T07:44:46;11.57;;;9.10;;
4517;SDS011;2271;49.464;11.070;2024-01-30T07:47:11;12.80;;;9.20;;
4517;SDS011;2271;49.464;11.070;2024-01-30T07:49:37;14.63;;;8.60;;
4517;SDS011;2271;49.464;11.070;2024-01-30T07:52:05;15.10;;;8.87;;
4517;SDS011;2271;49.464;11.070;2024-01-30T07:54:32;17.17;;;9.13;;
4517;SDS011;2271;49.464;11.070;2024-01-30T07:56:58;17.30;;;8.93;;
4517;SDS011;2271;49.464;11.070;2024-01-30T07:59:25;14.63;;;9.80;;
4517;SDS011;2271;49.464;11.070;2024-01-30T08:02:03;13.27;;;9.47;;
4517;SDS011;2271;49.464;11.070;2024-01-30T08:04:29;15.50;;;8.90;;
4517;SDS011;2271;49.464;11.070;2024-01-30T08:06:54;13.17;;;9.07;;
4517;SDS011;2271;49.464;11.070;2024-01-30T08:09:20;17.07;;;10.07;;
4517;SDS011;2271;49.464;11.070;2024-01-30T08:11:46;17.03;;;9.20;;
4517;SDS011;2271;49.464;11.070;2024-01-30T08:14:11;14.23;;;8.87;;
4517;SDS011;2271;49.464;11.070;2024-01-30T08:16:38;17.50;;;9.67;;
4517;SDS011;2271;49.464;11.070;2024-01-30T08:19:04;18.90;;;9.30;;
4517;SDS011;2271;49.464;11.070;2024-01-30T08:21:30;14.20;;;8.93;;
4517;SDS011;2271;49.464;11.070;2024-01-30T08:24:01;19.17;;;10.03;;
4517;SDS011;2271;49.464;11.070;2024-01-30T08:26:30;13.93;;;9.60;;
4517;SDS011;2271;49.464;11.070;2024-01-30T08:28:56;14.67;;;9.77;;
4517;SDS011;2271;49.464;11.070;2024-01-30T08:31:22;13.40;;;9.00;;
4517;SDS011;2271;49.464;11.070;2024-01-30T08:33:48;22.70;;;9.80;;
4517;SDS011;2271;49.464;11.070;2024-01-30T08:36:13;15.03;;;9.83;;
4517;SDS011;2271;49.464;11.070;2024-01-30T08:38:40;13.67;;;9.23;;
4517;SDS011;2271;49.464;11.070;2024-01-30T08:41:07;16.63;;;10.07;;
4517;SDS011;2271;49.464;11.070;2024-01-30T08:43:33;12.70;;;9.37;;
4517;SDS011;2271;49.464;11.070;2024-01-30T08:46:01;19.13;;;9.93;;
4517;SDS011;2271;49.464;11.070;2024-01-30T08:48:27;17.93;;;10.27;;
4517;SDS011;2271;49.464;11.070;2024-01-30T08:50:53;13.43;;;9.33;;
4517;SDS011;2271;49.464;11.070;2024-01-30T08:53:19;17.23;;;9.20;;
4517;SDS011;2271;49.464;11.070;2024-01-30T08:55:44;11.57;;;9.23;;
4517;SDS011;2271;49.464;11.070;2024-01-30T08:58:10;19.67;;;9.87;;
4517;SDS011;2271;49.464;11.070;2024-01-30T09:00:36;16.47;;;9.70;;
4517;SDS011;2271;49.464;11.070;2024-01-30T09:03:02;15.87;;;10.20;;
4517;SDS011;2271;49.464;11.070;2024-01-30T09:05:28;14.73;;;9.77;;
4517;SDS011;2271;49.464;11.070;2024-01-30T09:07:54;18.63;;;10.50;;
4517;SDS011;2271;49.464;11.070;2024-01-30T09:10:20;17.00;;;10.93;;
4517;SDS011;2271;49.464;11.070;2024-01-30T09:12:45;13.73;;;9.13;;
4517;SDS011;2271;49.464;11.070;2024-01-30T09:15:11;15.57;;;9.17;;
4517;SDS011;2271;49.464;11.070;2024-01-30T09:17:37;16.17;;;10.07;;
4517;SDS011;2271;49.464;11.070;2024-01-30T09:20:03;17.60;;;10.03;;
4517;SDS011;2271;49.464;11.070;2024-01-30T09:22:29;14.80;;;10.70;;
4517;SDS011;2271;49.464;11.070;2024-01-30T09:24:55;12.90;;;9.63;;
4517;SDS011;2271;49.464;11.070;2024-01-30T09:27:20;17.67;;;9.90;;
4517;SDS011;2271;49.464;11.070;2024-01-30T09:29:46;16.90;;;10.63;;
4517;SDS011;2271;49.464;11.070;2024-01-30T09:32:12;16.53;;;9.97;;
4517;SDS011;2271;49.464;11.070;2024-01-30T09:34:37;15.93;;;9.57;;
4517;SDS011;2271;49.464;11.070;2024-01-30T09:37:04;14.97;;;10.00;;
4517;SDS011;2271;49.464;11.070;2024-01-30T09:39:29;16.33;;;10.67;;
4517;SDS011;2271;49.464;11.070;2024-01-30T09:45:03;16.30;;;9.70;;
4517;SDS011;2271;49.464;11.070;2024-01-30T09:47:34;17.23;;;9.97;;
4517;SDS011;2271;49.464;11.070;2024-01-30T09:50:13;16.87;;;10.90;;
4517;SDS011;2271;49.464;11.070;2024-01-30T09:52:39;18.57;;;10.23;;
4517;SDS011;2271;49.464;11.070;2024-01-30T09:55:06;15.27;;;9.67;;
4517;SDS011;2271;49.464;11.070;2024-01-30T09:57:34;16.70;;;10.67;;
4517;SDS011;2271;49.464;11.070;2024-01-30T10:00:00;15.37;;;9.93;;
4517;SDS011;2271;49.464;11.070;2024-01-30T10:02:26;17.43;;;10.73;;
4517;SDS011;2271;49.464;11.070;2024-01-30T10:04:52;15.10;;;9.90;;
4517;SDS011;2271;49.464;11.070;2024-01-30T10:07:18;17.00;;;10.20;;
4517;SDS011;2271;49.464;11.070;2024-01-30T10:09:44;13.57;;;9.83;;
4517;SDS011;2271;49.464;11.070;2024-01-30T10:12:11;16.83;;;10.23;;
4517;SDS011;2271;49.464;11.070;2024-01-30T10:14:39;16.90;;;10.60;;
4517;SDS011;2271;49.464;11.070;2024-01-30T10:17:07;14.00;;;10.57;;
4517;SDS011;2271;49.464;11.070;2024-01-30T10:19:37;22.93;;;10.57;;
4517;SDS011;2271;49.464;11.070;2024-01-30T10:22:06;16.33;;;10.90;;
4517;SDS011;2271;49.464;11.070;2024-01-30T10:24:35;12.17;;;9.07;;
4517;SDS011;2271;49.464;11.070;2024-01-30T10:27:01;12.50;;;9.87;;
4517;SDS011;2271;49.464;11.070;2024-01-30T10:29:28;14.83;;;9.33;;
4517;SDS011;2271;49.464;11.070;2024-01-30T10:31:57;14.67;;;10.13;;
4517;SDS011;2271;49.464;11.070;2024-01-30T10:34:24;15.43;;;10.80;;
4517;SDS011;2271;49.464;11.070;2024-01-30T10:36:50;15.50;;;9.70;;
4517;SDS011;2271;49.464;11.070;2024-01-30T10:39:17;13.60;;;10.40;;
4517;SDS011;2271;49.464;11.070;2024-01-30T10:41:44;11.87;;;8.97;;
4517;SDS011;2271;49.464;11.070;2024-01-30T10:44:13;15.57;;;11.10;;
4517;SDS011;2271;49.464;11.070;2024-01-30T10:46:46;18.00;;;9.87;;
4517;SDS011;2271;49.464;11.070;2024-01-30T10:49:19;12.93;;;9.40;;
4517;SDS011;2271;49.464;11.070;2024-01-30T10:51:46;21.07;;;10.43;;
4517;SDS011;2271;49.464;11.070;2024-01-30T10:54:14;17.30;;;10.77;;
4517;SDS011;2271;49.464;11.070;2024-01-30T10:56:42;13.83;;;9.57;;
4517;SDS011;2271;49.464;11.070;2024-01-30T10:59:08;13.07;;;9.90;;
4517;SDS011;2271;49.464;11.070;2024-01-30T11:01:35;16.90;;;11.57;;
4517;SDS011;2271;49.464;11.070;2024-01-30T11:04:00;18.03;;;10.40;;
4517;SDS011;2271;49.464;11.070;2024-01-30T11:06:26;21.23;;;10.13;;
4517;SDS011;2271;49.464;11.070;2024-01-30T11:14:29;16.33;;;9.60;;
4517;SDS011;2271;49.464;11.070;2024-01-30T11:16:58;14.27;;;9.80;;
4517;SDS011;2271;49.464;11.070;2024-01-30T11:19:27;15.80;;;9.97;;
4517;SDS011;2271;49.464;11.070;2024-01-30T11:21:56;15.87;;;9.77;;
4517;SDS011;2271;49.464;11.070;2024-01-30T11:24:22;13.57;;;9.53;;
4517;SDS011;2271;49.464;11.070;2024-01-30T11:26:55;26.23;;;13.37;;
4517;SDS011;2271;49.464;11.070;2024-01-30T11:29:29;15.83;;;9.63;;
4517;SDS011;2271;49.464;11.070;2024-01-30T11:31:55;14.77;;;8.93;;
4517;SDS011;2271;49.464;11.070;2024-01-30T11:34:22;13.37;;;8.77;;
4517;SDS011;2271;49.464;11.070;2024-01-30T11:36:51;14.23;;;9.20;;
4517;SDS011;2271;49.464;11.070;2024-01-30T11:39:23;11.37;;;8.87;;
4517;SDS011;2271;49.464;11.070;2024-01-30T11:41:51;19.90;;;9.27;;
4517;SDS011;2271;49.464;11.070;2024-01-30T11:44:18;16.20;;;9.37;;
4517;SDS011;2271;49.464;11.070;2024-01-30T11:46:48;15.30;;;9.23;;
4517;SDS011;2271;49.464;11.070;2024-01-30T11:49:14;13.80;;;9.37;;
4517;SDS011;2271;49.464;11.070;2024-01-30T11:51:40;12.90;;;9.80;;
4517;SDS011;2271;49.464;11.070;2024-01-30T11:54:07;15.70;;;9.20;;
4517;SDS011;2271;49.464;11.070;2024-01-30T11:56:33;11.47;;;9.13;;
4517;SDS011;2271;49.464;11.070;2024-01-30T11:58:58;19.70;;;9.50;;
4517;SDS011;2271;49.464;11.070;2024-01-30T12:01:25;10.53;;;7.97;;
4517;SDS011;2271;49.464;11.070;2024-01-30T12:03:51;15.30;;;9.07;;
4517;SDS011;2271;49.464;11.070;2024-01-30T12:06:17;12.20;;;8.47;;
4517;SDS011;2271;49.464;11.070;2024-01-30T12:08:43;13.93;;;8.33;;
4517;SDS011;2271;49.464;11.070;2024-01-30T12:11:26;13.67;;;8.30;;
4517;SDS011;2271;49.464;11.070;2024-01-30T12:13:53;12.20;;;8.60;;
4517;SDS011;2271;49.464;11.070;2024-01-30T12:16:19;13.27;;;8.73;;
4517;SDS011;2271;49.464;11.070;2024-01-30T12:18:45;12.53;;;8.53;;
4517;SDS011;2271;49.464;11.070;2024-01-30T12:21:11;12.73;;;8.93;;
4517;SDS011;2271;49.464;11.070;2024-01-30T12:23:36;14.57;;;8.43;;
4517;SDS011;2271;49.464;11.070;2024-01-30T12:26:02;12.60;;;8.73;;
4517;SDS011;2271;49.464;11.070;2024-01-30T12:28:31;11.07;;;8.57;;
4517;SDS011;2271;49.464;11.070;2024-01-30T12:31:01;10.77;;;8.23;;
4517;SDS011;2271;49.464;11.070;2024-01-30T12:33:28;9.93;;;8.00;;
4517;SDS011;2271;49.464;11.070;2024-01-30T12:35:54;17.13;;;9.27;;
4517;SDS011;2271;49.464;11.070;2024-01-30T12:38:20;14.53;;;8.30;;
4517;SDS011;2271;49.464;11.070;2024-01-30T12:40:45;10.27;;;7.77;;
4517;SDS011;2271;49.464;11.070;2024-01-30T12:43:13;15.87;;;8.63;;
4517;SDS011;2271;49.464;11.070;2024-01-30T12:45:39;12.27;;;7.93;;
4517;SDS011;2271;49.464;11.070;2024-01-30T12:48:06;12.27;;;7.93;;
4517;SDS011;2271;49.464;11.070;2024-01-30T12:50:32;16.53;;;9.13;;
4517;SDS011;2271;49.464;11.070;2024-01-30T12:52:57;13.43;;;8.53;;
4517;SDS011;2271;49.464;11.070;2024-01-30T12:55:23;14.43;;;8.00;;
4517;SDS011;2271;49.464;11.070;2024-01-30T12:57:50;15.57;;;8.73;;
4517;SDS011;2271;49.464;11.070;2024-01-30T13:00:15;14.17;;;8.70;;
4517;SDS011;2271;49.464;11.070;2024-01-30T13:02:42;13.30;;;8.97;;
4517;SDS011;2271;49.464;11.070;2024-01-30T13:05:09;12.80;;;8.40;;
4517;SDS011;2271;49.464;11.070;2024-01-30T13:07:35;14.57;;;8.30;;
4517;SDS011;2271;49.464;11.070;2024-01-30T13:10:02;11.53;;;7.50;;
4517;SDS011;2271;49.464;11.070;2024-01-30T13:12:29;16.23;;;7.67;;
4517;SDS011;2271;49.464;11.070;2024-01-30T13:14:55;12.93;;;8.03;;
4517;SDS011;2271;49.464;11.070;2024-01-30T13:17:20;9.60;;;8.17;;
4517;SDS011;2271;49.464;11.070;2024-01-30T13:19:46;12.83;;;8.07;;
4517;SDS011;2271;49.464;11.070;2024-01-30T13:22:14;9.50;;;7.93;;
4517;SDS011;2271;49.464;11.070;2024-01-30T13:24:40;11.37;;;7.50;;
4517;SDS011;2271;49.464;11.070;2024-01-30T13:27:06;12.30;;;7.87;;
4517;SDS011;2271;49.464;11.070;2024-01-30T13:29:32;12.77;;;8.03;;
4517;SDS011;2271;49.464;11.070;2024-01-30T13:31:57;9.27;;;7.90;;
4517;SDS011;2271;49.464;11.070;2024-01-30T13:34:23;11.30;;;7.77;;
4517;SDS011;2271;49.464;11.070;2024-01-30T13:36:49;12.67;;;8.30;;
4517;SDS011;2271;49.464;11.070;2024-01-30T13:39:15;13.97;;;9.43;;
4517;SDS011;2271;49.464;11.070;2024-01-30T13:41:41;11.07;;;8.30;;
4517;SDS011;2271;49.464;11.070;2024-01-30T13:44:07;12.97;;;8.77;;
4517;SDS011;2271;49.464;11.070;2024-01-30T13:46:34;14.27;;;8.43;;
4517;SDS011;2271;49.464;11.070;2024-01-30T13:49:00;10.63;;;8.07;;
4517;SDS011;2271;49.464;11.070;2024-01-30T13:51:25;11.47;;;8.33;;
4517;SDS011;2271;49.464;11.070;2024-01-30T13:53:51;13.20;;;8.20;;
4517;SDS011;2271;49.464;11.070;2024-01-30T13:56:17;11.97;;;8.57;;
4517;SDS011;2271;49.464;11.070;2024-01-30T13:58:43;13.03;;;8.47;;
4517;SDS011;2271;49.464;11.070;2024-01-30T14:01:08;12.70;;;8.27;;
4517;SDS011;2271;49.464;11.070;2024-01-30T14:03:35;14.63;;;9.13;;
4517;SDS011;2271;49.464;11.070;2024-01-30T14:06:00;13.47;;;9.17;;
4517;SDS011;2271;49.464;11.070;2024-01-30T14:08:26;19.97;;;12.10;;
4517;SDS011;2271;49.464;11.070;2024-01-30T14:10:53;24.70;;;12.40;;
4517;SDS011;2271;49.464;11.070;2024-01-30T14:13:21;27.70;;;15.63;;
4517;SDS011;2271;49.464;11.070;2024-01-30T14:15:47;26.30;;;11.53;;
4517;SDS011;2271;49.464;11.070;2024-01-30T14:18:14;21.23;;;11.30;;
4517;SDS011;2271;49.464;11.070;2024-01-30T14:20:40;30.60;;;16.53;;
4517;SDS011;2271;49.464;11.070;2024-01-30T14:23:06;25.27;;;14.00;;
4517;SDS011;2271;49.464;11.070;2024-01-30T14:25:32;12.67;;;9.23;;
4517;SDS011;2271;49.464;11.070;2024-01-30T14:27:57;14.93;;;9.23;;
4517;SDS011;2271;49.464;11.070;2024-01-30T14:30:23;14.17;;;9.10;;
4517;SDS011;2271;49.464;11.070;2024-01-30T14:32:49;17.13;;;9.70;;
4517;SDS011;2271;49.464;11.070;2024-01-30T14:35:15;12.00;;;8.50;;
4517;SDS011;2271;49.464;11.070;2024-01-30T14:37:41;13.63;;;8.83;;
4517;SDS011;2271;49.464;11.070;2024-01-30T14:40:07;14.67;;;9.47;;
4517;SDS011;2271;49.464;11.070;2024-01-30T14:42:33;16.23;;;8.90;;
4517;SDS011;2271;49.464;11.070;2024-01-30T14:44:59;12.07;;;8.60;;
4517;SDS011;2271;49.464;11.070;2024-01-30T14:47:25;12.60;;;8.73;;
4517;SDS011;2271;49.464;11.070;2024-01-30T14:49:51;15.00;;;9.10;;
4517;SDS011;2271;49.464;11.070;2024-01-30T14:52:17;11.13;;;8.33;;
4517;SDS011;2271;49.464;11.070;2024-01-30T14:54:43;12.97;;;8.40;;